createdAt,value
2022-08-03T00:00:24.454Z,69.50
2022-08-03T00:04:07.485Z,69.30
2022-08-03T00:07:49.764Z,69.30
2022-08-03T00:11:32.666Z,69.40
2022-08-03T00:15:16.824Z,69.50
2022-08-03T00:19:00.615Z,69.30
2022-08-03T00:22:43.068Z,69.30
2022-08-03T00:26:25.400Z,69.50
2022-08-03T00:30:09.951Z,69.60
2022-08-03T00:33:59.534Z,69.90
2022-08-03T00:37:45.324Z,69.90
2022-08-03T00:41:27.756Z,70.00
2022-08-03T00:45:10.095Z,70.10
2022-08-03T00:48:53.815Z,70.20
2022-08-03T00:52:36.554Z,70.30
2022-08-03T00:56:18.984Z,70.50
2022-08-03T01:00:01.176Z,70.40
2022-08-03T01:03:44.433Z,70.60
2022-08-03T01:07:55.488Z,70.90
2022-08-03T01:12:00.968Z,71.80
2022-08-03T01:16:19.683Z,70.80
2022-08-03T01:20:09.863Z,71.90
2022-08-03T01:23:59.236Z,71.00
2022-08-03T01:28:09.049Z,71.10
2022-08-03T01:32:59.325Z,71.90
2022-08-03T01:36:08.173Z,71.50
2022-08-03T01:39:52.209Z,71.20
2022-08-03T01:44:26.862Z,71.20
2022-08-03T01:47:41.032Z,71.60
2022-08-03T01:51:56.128Z,71.70
2022-08-03T01:55:32.141Z,71.70
2022-08-03T01:59:16.734Z,71.90
2022-08-03T02:02:59.343Z,72.20
2022-08-03T02:07:00.507Z,72.40
2022-08-03T02:10:46.435Z,72.30
2022-08-03T02:14:29.412Z,72.40
2022-08-03T02:18:12.423Z,72.80
2022-08-03T02:21:56.485Z,72.90
2022-08-03T02:25:47.530Z,72.90
2022-08-03T02:29:39.824Z,73.40
2022-08-03T02:33:30.434Z,73.30
2022-08-03T02:37:15.140Z,73.50
2022-08-03T02:40:59.115Z,73.50
2022-08-03T02:44:47.972Z,73.30
2022-08-03T02:48:32.932Z,73.30
2022-08-03T02:52:17.051Z,73.50
2022-08-03T02:56:00.891Z,73.40
2022-08-03T02:59:44.083Z,73.70
2022-08-03T03:03:28.258Z,73.80
2022-08-03T03:07:15.375Z,74.00
2022-08-03T03:11:01.049Z,74.30
2022-08-03T03:14:43.482Z,74.40
2022-08-03T03:18:27.823Z,74.80
2022-08-03T03:22:11.062Z,74.60
2022-08-03T03:25:56.277Z,74.70
2022-08-03T03:29:39.346Z,74.60
2022-08-03T03:33:23.296Z,74.90
2022-08-03T03:37:05.805Z,75.20
2022-08-03T03:40:48.680Z,75.30
2022-08-03T03:44:31.413Z,75.40
2022-08-03T03:48:13.908Z,75.50
2022-08-03T03:51:56.729Z,75.70
2022-08-03T03:55:57.812Z,75.80
2022-08-03T03:59:43.719Z,76.10
2022-08-03T04:03:25.937Z,75.90
2022-08-03T04:07:37.003Z,76.20
2022-08-03T04:11:32.169Z,76.20
2022-08-03T04:15:15.931Z,77.70
2022-08-03T04:19:02.420Z,76.60
2022-08-03T04:22:45.580Z,77.00
2022-08-03T04:26:30.448Z,77.20
2022-08-03T04:30:13.474Z,77.40
2022-08-03T04:33:57.042Z,77.50
2022-08-03T04:37:44.458Z,77.60
2022-08-03T04:41:28.933Z,77.90
2022-08-03T04:45:16.621Z,77.90
2022-08-03T04:48:59.529Z,78.00
2022-08-03T04:52:42.213Z,77.40
2022-08-03T04:56:25.127Z,77.30
2022-08-03T05:00:07.854Z,77.30
2022-08-03T05:03:49.902Z,77.30
2022-08-03T05:07:35.438Z,77.40
2022-08-03T05:11:18.738Z,77.50
2022-08-03T05:15:01.838Z,77.40
2022-08-03T05:18:44.314Z,77.40
2022-08-03T05:22:27.115Z,77.60
2022-08-03T05:26:09.614Z,77.60
2022-08-03T05:29:51.936Z,77.50
2022-08-03T05:33:33.979Z,77.70
2022-08-03T05:37:16.072Z,77.60
2022-08-03T05:41:22.856Z,77.70
2022-08-03T05:45:13.256Z,77.90
2022-08-03T05:48:55.484Z,78.40
2022-08-03T05:52:38.026Z,78.70
2022-08-03T05:56:25.485Z,79.00
2022-08-03T06:00:10.539Z,79.30
2022-08-03T06:03:54.913Z,79.60
2022-08-03T06:07:37.295Z,80.00
2022-08-03T06:11:19.652Z,80.20
2022-08-03T06:15:03.019Z,80.40
2022-08-03T06:18:45.740Z,80.50
2022-08-03T06:22:27.895Z,80.80
2022-08-03T06:26:10.070Z,80.90
2022-08-03T06:29:54.370Z,81.00
2022-08-03T06:34:31.092Z,81.00
2022-08-03T06:37:46.466Z,81.30
2022-08-03T06:41:29.028Z,82.20
2022-08-03T06:45:11.968Z,81.70
2022-08-03T06:48:54.274Z,81.70
2022-08-03T06:52:37.896Z,81.60
2022-08-03T06:56:22.984Z,81.60
2022-08-03T07:00:09.189Z,81.50
2022-08-03T07:03:56.636Z,81.50
2022-08-03T07:07:40.047Z,81.30
2022-08-03T07:11:22.238Z,81.20
2022-08-03T07:15:06.018Z,81.20
2022-08-03T07:18:48.076Z,81.20
2022-08-03T07:22:30.168Z,81.40
2022-08-03T07:26:12.326Z,81.10
2022-08-03T07:29:55.216Z,81.00
2022-08-03T07:33:37.262Z,80.80
2022-08-03T07:37:19.253Z,80.70
2022-08-03T07:41:03.109Z,80.60
2022-08-03T07:44:45.096Z,81.10
2022-08-03T07:48:27.236Z,81.50
2022-08-03T07:52:28.553Z,81.80
2022-08-03T07:56:11.350Z,82.00
2022-08-03T08:00:01.890Z,81.80
2022-08-03T08:03:52.616Z,82.00
2022-08-03T08:07:39.647Z,81.60
2022-08-03T08:11:22.684Z,81.40
2022-08-03T08:15:05.263Z,81.10
2022-08-03T08:18:47.916Z,80.70
2022-08-03T08:22:31.545Z,80.20
2022-08-03T08:26:13.845Z,80.00
2022-08-03T08:29:59.600Z,79.40
2022-08-03T08:34:04.053Z,79.20
2022-08-03T08:37:50.964Z,78.90
2022-08-03T08:41:36.399Z,78.20
2022-08-03T08:45:19.845Z,78.10
2022-08-03T08:49:04.685Z,77.90
2022-08-03T08:52:49.615Z,77.70
2022-08-03T08:56:32.756Z,77.40
2022-08-03T09:00:16.684Z,77.10
2022-08-03T09:03:59.171Z,77.00
2022-08-03T09:07:42.947Z,77.10
2022-08-03T09:11:52.502Z,77.10
2022-08-03T09:15:31.565Z,76.80
2022-08-03T09:19:17.586Z,76.40
2022-08-03T09:23:20.239Z,76.10
2022-08-03T09:27:14.156Z,75.40
2022-08-03T09:31:01.502Z,75.40
2022-08-03T09:34:44.025Z,75.20
2022-08-03T09:38:27.665Z,75.20
2022-08-03T09:42:15.077Z,75.10
2022-08-03T09:46:05.327Z,74.80
2022-08-03T09:49:59.288Z,74.10
2022-08-03T09:53:59.121Z,72.80
2022-08-03T09:57:45.630Z,73.00
2022-08-03T10:01:35.014Z,73.40
2022-08-03T10:05:31.535Z,73.70
2022-08-03T10:09:17.089Z,74.00
2022-08-03T10:13:00.318Z,74.00
2022-08-03T10:16:44.866Z,73.80
2022-08-03T10:20:27.948Z,74.40
2022-08-03T10:24:11.791Z,74.90
2022-08-03T10:27:56.599Z,75.20
2022-08-03T10:31:57.604Z,75.50
2022-08-03T10:39:53.530Z,74.50
2022-08-03T10:44:10.225Z,74.00
2022-08-03T10:47:53.895Z,73.40
2022-08-03T10:51:48.868Z,73.00
2022-08-03T10:56:09.582Z,71.80
2022-08-03T10:59:57.299Z,71.60
2022-08-03T11:03:56.877Z,71.90
2022-08-03T11:07:45.120Z,71.00
2022-08-03T11:11:55.025Z,71.10
2022-08-03T11:15:40.725Z,69.80
2022-08-03T11:19:30.656Z,70.70
2022-08-03T11:23:18.281Z,70.80
2022-08-03T11:27:31.690Z,70.40
2022-08-03T11:31:48.833Z,70.20
2022-08-03T11:35:55.828Z,69.30
2022-08-03T11:39:46.558Z,69.20
2022-08-03T11:43:37.415Z,68.70
2022-08-03T11:47:27.442Z,69.00
2022-08-03T11:51:33.335Z,68.90
2022-08-03T11:55:30.286Z,69.10
2022-08-03T11:59:20.690Z,69.50
2022-08-03T12:03:05.673Z,69.70
2022-08-03T12:07:11.616Z,69.80
2022-08-03T12:11:15.929Z,70.20
2022-08-03T12:14:59.693Z,70.30
2022-08-03T12:18:48.626Z,70.40
2022-08-03T12:22:39.060Z,70.70
2022-08-03T12:26:23.949Z,70.40
2022-08-03T12:30:08.856Z,70.70
2022-08-03T12:34:05.181Z,70.90
2022-08-03T12:37:52.501Z,70.90
2022-08-03T12:41:37.410Z,71.30
2022-08-03T12:45:24.843Z,71.10
2022-08-03T12:49:21.707Z,70.80
2022-08-03T12:53:09.583Z,70.30
2022-08-03T12:57:04.809Z,70.00
2022-08-03T13:00:56.659Z,68.90
2022-08-03T13:04:38.894Z,67.90
2022-08-03T13:08:32.932Z,68.10
2022-08-03T13:12:20.957Z,67.20
2022-08-03T13:16:05.600Z,67.30
2022-08-03T13:19:48.769Z,67.70
2022-08-03T13:28:04.517Z,67.10
2022-08-03T13:31:36.680Z,66.60
2022-08-03T13:35:40.012Z,66.60
2022-08-03T13:39:32.593Z,66.00
2022-08-03T13:43:15.483Z,66.00
2022-08-03T13:47:01.013Z,65.40
2022-08-03T13:50:43.343Z,65.00
2022-08-03T13:54:27.242Z,65.20
2022-08-03T13:58:12.617Z,64.90
2022-08-03T14:01:58.639Z,64.60
2022-08-03T14:05:45.113Z,64.00
2022-08-03T14:09:27.889Z,64.00
2022-08-03T14:13:18.861Z,63.40
2022-08-03T14:17:04.660Z,62.20
2022-08-03T14:21:21.902Z,62.00
2022-08-03T14:25:05.400Z,60.10
2022-08-03T14:29:16.877Z,60.30
2022-08-03T14:33:02.749Z,58.30
2022-08-03T14:36:48.569Z,59.70
2022-08-03T14:40:43.884Z,58.80
2022-08-03T14:44:26.163Z,57.60
2022-08-03T14:50:33.283Z,59.60
2022-08-03T14:52:12.051Z,58.30
2022-08-03T14:55:56.927Z,57.70
2022-08-03T14:59:55.855Z,57.10
2022-08-03T15:03:39.458Z,56.00
2022-08-03T15:07:24.117Z,56.70
2022-08-03T15:11:11.965Z,56.10
2022-08-03T15:14:57.973Z,55.80
2022-08-03T15:18:46.557Z,56.20
2022-08-03T15:22:35.624Z,55.40
2022-08-03T15:26:32.884Z,55.40
2022-08-03T15:30:20.703Z,55.30
2022-08-03T15:34:02.962Z,55.40
2022-08-03T15:37:45.121Z,55.20
2022-08-03T15:41:27.170Z,54.90
2022-08-03T15:45:09.595Z,54.80
2022-08-03T15:48:51.761Z,54.70
2022-08-03T15:52:34.149Z,54.50
2022-08-03T15:56:18.702Z,54.60
2022-08-03T16:00:01.357Z,54.40
2022-08-03T16:03:43.439Z,54.40
2022-08-03T16:08:02.605Z,54.10
2022-08-03T16:11:45.441Z,54.10
2022-08-03T16:15:27.954Z,54.10
2022-08-03T16:19:10.386Z,54.20
2022-08-03T16:22:53.612Z,54.20
2022-08-03T16:26:35.710Z,54.20
2022-08-03T16:30:18.030Z,54.50
2022-08-03T16:34:00.170Z,54.70
2022-08-03T16:37:54.720Z,54.60
2022-08-03T16:42:00.524Z,54.50
2022-08-03T16:45:41.101Z,54.60
2022-08-03T16:49:52.902Z,54.40
2022-08-03T16:53:51.556Z,54.60
2022-08-03T16:57:58.296Z,54.60
2022-08-03T17:01:37.820Z,54.50
2022-08-03T17:05:20.245Z,54.50
2022-08-03T17:09:08.781Z,54.50
2022-08-03T17:12:51.797Z,54.90
2022-08-03T17:16:34.574Z,55.00
2022-08-03T17:20:21.764Z,55.10
2022-08-03T17:24:34.582Z,55.10
2022-08-03T17:28:48.901Z,54.60
2022-08-03T17:32:21.593Z,55.30
2022-08-03T17:36:04.364Z,55.00
2022-08-03T17:40:04.066Z,55.10
2022-08-03T17:44:14.955Z,55.10
2022-08-03T17:47:57.276Z,55.20
2022-08-03T17:51:53.052Z,55.00
2022-08-03T17:55:55.012Z,54.70
2022-08-03T17:59:54.665Z,55.10
2022-08-03T18:03:57.733Z,55.30
2022-08-03T18:07:46.699Z,55.60
2022-08-03T18:11:35.878Z,55.60
2022-08-03T18:15:27.080Z,55.60
2022-08-03T18:19:13.737Z,55.60
2022-08-03T18:22:57.187Z,55.60
2022-08-03T18:26:40.137Z,55.60
2022-08-03T18:30:32.991Z,55.70
2022-08-03T18:34:53.065Z,55.70
2022-08-03T18:38:43.042Z,55.90
2022-08-03T18:42:28.797Z,55.70
2022-08-03T18:46:43.299Z,56.10
2022-08-03T18:55:21.577Z,56.30
2022-08-03T18:59:46.049Z,56.10
2022-08-03T19:03:42.846Z,55.80
2022-08-03T19:07:27.517Z,56.10
2022-08-03T19:11:28.478Z,56.30
2022-08-03T19:15:36.485Z,56.30
2022-08-03T19:19:24.671Z,56.60
2022-08-03T19:23:07.159Z,56.80
2022-08-03T19:26:56.235Z,57.20
2022-08-03T19:30:40.478Z,57.40
2022-08-03T19:34:24.296Z,57.70
2022-08-03T19:38:09.013Z,57.80
2022-08-03T19:41:57.670Z,58.00
2022-08-03T19:46:04.403Z,58.20
2022-08-03T19:50:05.799Z,58.30
2022-08-03T19:53:52.979Z,58.40
2022-08-03T19:57:38.045Z,58.30
2022-08-03T20:05:23.804Z,58.20
2022-08-03T20:09:06.422Z,58.30
2022-08-03T20:12:49.949Z,58.40
2022-08-03T20:16:32.218Z,58.50
2022-08-03T20:20:18.807Z,58.60
2022-08-03T20:24:24.276Z,58.80
2022-08-03T20:28:15.207Z,58.90
2022-08-03T20:31:59.098Z,59.00
2022-08-03T20:35:41.910Z,58.90
2022-08-03T20:39:28.256Z,58.90
2022-08-03T20:43:13.901Z,59.00
2022-08-03T20:47:00.429Z,58.90
2022-08-03T20:50:59.575Z,58.90
2022-08-03T20:54:42.732Z,58.90
2022-08-03T20:58:26.714Z,58.90
2022-08-03T21:02:09.253Z,59.00
2022-08-03T21:05:53.785Z,59.00
2022-08-03T21:09:49.411Z,59.00
2022-08-03T21:13:08.908Z,58.20
2022-08-03T21:13:10.710Z,55.70
2022-08-03T21:13:50.368Z,59.10
2022-08-03T21:17:40.822Z,59.50
2022-08-03T21:21:24.210Z,59.30
2022-08-03T21:25:11.231Z,59.30
2022-08-03T21:28:55.819Z,59.50
2022-08-03T21:32:40.730Z,59.60
2022-08-03T21:36:22.948Z,59.60
2022-08-03T21:40:05.652Z,59.70
2022-08-03T21:43:47.846Z,60.00
2022-08-03T21:47:30.138Z,60.10
2022-08-03T21:51:15.470Z,60.40
2022-08-03T21:55:03.120Z,60.60
2022-08-03T21:58:56.034Z,60.90
2022-08-03T22:02:42.840Z,61.50
2022-08-03T22:06:27.744Z,61.20
2022-08-03T22:10:11.151Z,61.40
2022-08-03T22:13:53.297Z,61.50
2022-08-03T22:17:55.838Z,61.70
2022-08-03T22:21:41.833Z,62.00
2022-08-03T22:25:30.924Z,62.10
2022-08-03T22:29:13.233Z,62.70
2022-08-03T22:32:56.603Z,62.40
2022-08-03T22:36:41.199Z,62.50
2022-08-03T22:40:23.277Z,62.70
2022-08-03T22:44:05.617Z,62.70
2022-08-03T22:47:49.504Z,62.80
2022-08-03T22:51:34.275Z,62.80
2022-08-03T22:55:18.821Z,63.00
2022-08-03T22:59:40.031Z,63.10
2022-08-03T23:03:10.111Z,63.10
2022-08-03T23:06:55.879Z,63.10
2022-08-03T23:10:42.560Z,63.10
2022-08-03T23:14:33.317Z,63.10
2022-08-03T23:18:15.786Z,63.30
2022-08-03T23:22:03.236Z,63.30
2022-08-03T23:25:47.869Z,63.50
2022-08-03T23:29:31.730Z,63.50
2022-08-03T23:33:14.999Z,63.60
2022-08-03T23:37:00.296Z,63.80
2022-08-03T23:40:42.721Z,63.90
2022-08-03T23:44:27.375Z,64.10
2022-08-03T23:48:09.620Z,64.20
2022-08-03T23:52:03.114Z,64.30
2022-08-03T23:56:12.046Z,65.10
